首页
METAR-TAF:

METAR-TAF

机场 :

羅蘭加洛斯機場

圣但尼, 留尼汪岛

纬度: 20-53S, 经度: 055-31E, 海拔: 21米

当前天气观测

该预报发布于49分钟前的03:00 UTC
风速15节,风向东南
温度 25°C
湿度 69%
气压 1017 hPa
能见度10公里或以上
少量云层高于3100英尺
散云层高于5200英尺
多云层高于6200英尺

METAR: FMEE 140300Z AUTO 13015KT 9999 FEW031 SCT052 BKN062 25/19 Q1017 TEMPO 4000 SHRA SCT020TCU BECMG 13015G25KT

时间: 07:49 (03:49 UTC)

预报

该预报发布于4小时和49分钟前的23:00 UTC
预报有效从14日的 00点(UTC)到 15日的 06点(UTC)
风速15节,风向东南,有时为25节阵风
能见度10公里或以上
散云层高于3000英尺
多云层高于6000英尺
几率 30% :
短暂存在
从 14日的 00点(UTC)到 14日的 06点(UTC)
能見度: 4000
散云层高于2000英尺, 塔状积云.
阵雨
成为
从 14日的 13点(UTC)到 14日的 15点(UTC)
风速5节,风向南转南东
几率 40% :
短暂存在
从 14日的 18点(UTC)到 15日的 06点(UTC)
能見度: 4000
多云层高于2000英尺, 塔状积云.
阵雨,

TAF: FMEE 132300Z 1400/1506 13015G25KT 9999 SCT030 BKN060 PROB30 TEMPO 1400/1406 4000 SHRA SCT020TCU BECMG 1413/1415 15005KT PROB40 TEMPO 1418/1506 4000 SHRA BKN020TCU

超过4000个机场的气象观测和天气预报(METAR&TAF报告)。

可查询的气象台以黄色和红色小点在地图上表示。

将鼠标移到小点上方,可查看气象台名称。

然后点击查看天气观测和预报。

如需切换地图:点击带黑十字的绿色按钮放大地图;点击带横线的绿色按钮缩小地图;或者点击绿色箭头查看邻近地区的地图。


METAR-TAF: